Weather observations for the past three days for
Shelby Municipal Airport
Imperial (Metric)
Date Time (edt) Wind (mph) Vis. (mi.) Weather Sky Cond. Temperature (ºF) Relative Humidity Wind Chill (°F) Heat Index (°F) Pressure Precipitation (in)
Air Dwpt 6 hour altimeter (in) sea level (mb) 1 hr 3 hr 6 hr
Max. Min.
03 17:15 SW 8 10.00 Fair CLR 68 32 26% 30.01 0.0
03 16:55 W 8 10.00 Fair CLR 67.5 31.5 26% 30.02 0.0
03 16:35 Calm 10.00 Fair CLR 67.5 30.2 25% 30.03 0.0
03 16:15 S 7 10.00 Fair CLR 68.5 29.3 23% 30.04 0.0
03 15:55 W 12 10.00 Fair CLR 67.8 32.4 27% 30.05 0.0
03 15:35 W 9 G 21 10.00 Fair CLR 66.6 30.7 26% 30.05 0.0
03 15:15 SW 8 10.00 Fair CLR 66.6 30 26% 30.07 0.0
03 14:55 W 9 10.00 Fair CLR 65.5 31.1 28% 30.07 0.0
03 14:35 SW 9 G 17 10.00 Fair CLR 65.1 31.6 29% 30.08 0.0
03 14:15 W 12 10.00 Fair CLR 64.8 32.2 30% 30.08 0.0
03 13:55 SW 7 10.00 Fair CLR 62.8 31.8 64.6 41.9 31% 30.09 0.0
03 13:35 Calm 10.00 Fair CLR 63 31.6 31% 30.1 0.0
03 13:15 W 6 10.00 Fair CLR 61.7 32.7 34% 30.11 0.0
03 12:55 S 8 10.00 Fair CLR 60.6 33.3 36% 30.12 0.0
03 12:35 NW 5 10.00 Fair CLR 60.1 32.4 35% 30.13 0.0
03 12:15 W 7 10.00 Fair CLR 59.7 32.2 35% 30.14 0.0
03 11:55 NW 3 10.00 Fair CLR 59.4 32.2 36% 30.14 0.0
03 11:35 W 8 10.00 Fair CLR 58.3 32.4 38% 30.14 0.0
03 11:15 N 5 10.00 Fair CLR 57.9 32.9 39% 30.14 0.0
03 10:55 N 5 10.00 Fair CLR 56.1 32 40% 30.14 0.0
03 10:35 W 6 10.00 Fair CLR 55.6 32 41% 30.14 0.0
03 10:15 W 3 10.00 Fair CLR 55.2 32.9 43% 30.14 0.0
03 09:55 NW 5 10.00 Fair CLR 54.3 33.8 46% 30.14 0.0
03 09:35 N 5 10.00 Fair CLR 54.1 33.3 45% 30.14 0.0
03 09:15 N 3 10.00 Fair CLR 51.8 36.3 56% 30.14 0.0
03 08:55 N 3 10.00 Fair CLR 49.6 35.8 59% 30.14 0.0
03 08:35 Calm 10.00 Fair CLR 47.1 36.7 67% 30.14 0.0
03 08:15 Calm 10.00 Fair CLR 44.1 36.9 76% 30.13 0.0
03 07:55 Calm 10.00 Fair CLR 41.5 36.5 45.5 35.6 82% 30.13 0.0
03 07:35 Calm 10.00 Fair CLR 38.7 36 90% 30.12 0.0
03 07:15 Calm 10.00 Fair CLR 36.3 33.8 91% 30.12 0.0
03 06:55 Calm 10.00 Fair CLR 36.5 34 91% 30.11 0.0
03 06:35 Calm 10.00 Fair CLR 35.8 33.8 93% 30.1 0.0
03 06:15 Calm 10.00 Fair CLR 37.2 34.2 89% 30.09 0.0
03 05:55 Calm 10.00 Fair CLR 37.4 34.7 90% 30.08 0.0
03 05:35 Calm 10.00 Fair CLR 37.6 34.2 88% 30.08 0.0
03 05:15 Calm 10.00 Fair CLR 38.7 34.5 85% 30.07 0.0
03 04:55 Calm 10.00 Fair CLR 37.6 34.5 89% 30.07 0.0
03 04:35 Calm 10.00 Fair CLR 39.2 34.5 83% 30.06 0.0
03 04:15 Calm 10.00 Fair CLR 39.2 35.1 85% 30.06 0.0
03 03:55 Calm 10.00 Fair CLR 40.1 35.4 83% 30.05 0.0
03 03:35 NE 3 10.00 Fair CLR 39.6 35.4 85% 30.04 0.0
03 02:55 Calm 10.00 Fair CLR 41.2 36 82% 30.03 0.0
03 02:35 Calm 10.00 Fair CLR 40.3 36 85% 30.03 0.0
03 02:15 Calm 10.00 Fair CLR 45.1 33.8 65% 30.03 0.0
03 01:55 Calm 10.00 Fair CLR 43 34.7 60.1 43 73% 30.03 0.0
03 01:35 Calm 10.00 Fair CLR 45.1 34.3 66% 30.03 0.0
03 01:15 Calm 10.00 Fair CLR 44.2 35.4 71% 30.03 0.0
03 00:55 Calm 10.00 Fair CLR 45.9 35.1 66% 30.02 0.0
03 00:35 Calm 10.00 Fair CLR 49.1 32.2 52% 30.02 0.0
03 00:15 N 3 10.00 Fair CLR 48 33.4 57% 30.01 0.0
02 23:55 Calm 10.00 Fair CLR 51.6 31.6 47% 30.01 0.0
02 23:35 NE 3 10.00 Fair CLR 52 31.8 46% 30 0.0
02 23:15 N 3 10.00 Fair CLR 53.2 31.8 44% 30 0.0
02 22:55 Calm 10.00 Mostly Cloudy BKN110 53.1 32.5 46% 30 0.0
02 22:35 Calm 10.00 Mostly Cloudy BKN100 55 32 42% 29.99 0.0
02 22:15 N 3 10.00 Mostly Cloudy BKN100 55.6 32.5 42% 29.99 0.0
02 21:55 N 3 10.00 Overcast OVC110 56.3 33.6 42% 29.97 0.0
02 21:35 N 5 10.00 Overcast OVC095 57.2 34.7 43% 29.96 0.0
02 21:15 N 5 10.00 Overcast OVC095 57.4 37.2 47% 29.95 0.0
02 20:55 Calm 10.00 Overcast OVC085 56.8 41.5 57% 29.94 0.0
02 20:35 Calm 10.00 Overcast OVC085 57.4 40.8 54% 29.94 0.0
02 20:15 NE 3 10.00 Overcast OVC085 60.1 34 38% 29.92 0.0
02 19:55 W 5 10.00 Overcast OVC085 60.1 36.7 63.1 58.1 42% 29.91 0.0
02 19:35 S 3 10.00 Overcast OVC085 60.1 40.3 48% 29.9 0.0
02 19:15 Calm 10.00 Overcast OVC085 61.7 41.5 48% 29.89 0.0
02 18:55 Calm 10.00 Overcast OVC085 61.9 41 46% 29.89 0.0
02 18:35 SW 5 10.00 Partly Cloudy SCT085 61.9 40.3 45% 29.89 0.0
02 18:15 Calm 10.00 Fair CLR 62.2 39.4 43% 29.88 0.0
02 17:55 SW 5 10.00 Fair CLR 62.8 39.9 43% 29.87 0.0
02 17:35 Calm 10.00 Fair CLR 62.4 38.8 42% 29.87 0.0
02 17:15 W 3 10.00 Fair CLR 61.9 39.2 43% 29.87 0.0
02 16:55 W 3 10.00 Fair CLR 61.9 38.7 42% 29.87 0.0
02 16:35 SE 3 10.00 Fair CLR 61.5 39.4 44% 29.88 0.0
02 16:15 SE 3 10.00 Fair CLR 61.7 39.9 45% 29.88 0.0
02 15:55 NW 3 10.00 Partly Cloudy SCT065 61.7 38.7 43% 29.89 0.0
02 15:35 NE 5 10.00 Overcast OVC065 61 38.7 44% 29.89 0.0
02 15:15 E 5 10.00 Overcast BKN065 OVC085 60.1 39.4 47% 29.9 0.0
02 14:55 Calm 10.00 Overcast SCT065 BKN075 OVC085 60.6 40.3 47% 29.91 0.0
02 14:35 Calm 10.00 Overcast SCT055 BKN065 OVC085 59.7 40.1 48% 29.92 0.0
02 14:15 NE 6 10.00 Overcast BKN050 OVC065 58.8 40.1 50% 29.92 0.0
02 13:55 E 7 10.00 Overcast OVC050 58.6 40.3 60.1 54 51% 29.92 0.0
02 13:35 NE 6 10.00 Overcast OVC050 57.7 41 54% 29.92 0.0
02 13:15 E 7 10.00 Overcast OVC055 56.5 40.8 56% 29.93 0.0
02 12:55 NE 7 10.00 Overcast OVC055 56.3 41.2 57% 29.93 0.0
02 12:35 NE 8 10.00 Overcast OVC049 56.8 41.2 56% 29.94 0.0
02 12:15 NE 6 10.00 Overcast OVC049 56.8 41.7 57% 29.94 0.0
02 11:55 NE 6 10.00 Overcast OVC049 55.8 42.4 61% 29.95 0.0
02 11:35 NE 5 10.00 Light Rain OVC047 54.7 41.7 62% 29.95 0.0
02 11:15 NE 6 10.00 Overcast OVC047 54.7 42.4 64% 29.95 0.0
02 10:55 NE 6 10.00 Overcast OVC047 54.7 42.6 64% 29.96 0.0
02 10:35 NE 6 10.00 Overcast OVC043 54.5 42.4 64% 29.95 0.0
02 10:15 NE 6 10.00 Overcast OVC043 54.5 43 65% 29.94 0.0
02 09:55 E 6 10.00 Overcast OVC043 54.7 44.1 68% 29.94 0.0
02 09:35 E 6 10.00 Overcast OVC041 54.7 44.6 69% 29.94 0.0
02 09:15 NE 5 10.00 Overcast BKN039 BKN050 OVC065 54.7 45.9 72% 29.94 0.0
02 08:55 NE 3 10.00 Overcast BKN039 BKN048 OVC065 54.5 47.1 76% 29.94 0.0
02 08:35 N 3 10.00 Overcast BKN039 OVC050 54 46.8 77% 29.93 0.0
02 08:15 NE 5 10.00 Overcast SCT033 SCT041 OVC048 54 47.3 78% 29.92 0.0
02 07:55 NE 5 10.00 Overcast BKN031 OVC075 54 48 55.9 53.1 80% 29.92 0.0
02 07:35 E 9 10.00 Overcast SCT027 SCT050 OVC110 53.8 48.6 83% 29.89 0.0
02 07:15 E 7 10.00 Overcast SCT065 OVC110 53.6 49.6 87% 29.9 0.0
02 06:55 NE 7 10.00 Overcast BKN065 OVC120 53.6 50.9 91% 29.9 0.0
02 06:35 NE 6 10.00 Overcast OVC120 53.2 50.7 91% 29.89 0.0
02 06:15 E 3 10.00 Overcast OVC120 53.2 51.8 95% 29.89 0.0
02 05:55 Calm 10.00 Mostly Cloudy BKN120 53.1 51.8 96% 29.89 0.0
02 05:35 Calm 10.00 Overcast SCT050 SCT075 OVC120 53.1 51.4 94% 29.9 0.0
02 05:15 Calm 10.00 Light Rain OVC070 53.6 51.3 92% 29.91 0.0
02 04:55 NE 3 10.00 Drizzle OVC070 53.8 51.1 91% 29.92 0.0
02 04:35 NE 5 10.00 Overcast SCT070 OVC090 53.6 51.3 92% 29.92 0.0
02 04:15 Calm 10.00 Light Rain SCT065 OVC090 54.5 51.3 89% 29.91 0.0
02 03:55 Calm 10.00 Overcast OVC090 54.7 51.1 88% 29.9 0.0
02 03:35 Calm 10.00 Overcast OVC100 54.7 50.9 87% 29.89 0.0
02 03:15 Calm 10.00 Overcast OVC100 55 50.9 86% 29.88 0.0
02 02:55 Calm 10.00 Overcast OVC110 55.8 50.5 83% 29.89 0.0
02 02:35 Calm 10.00 Mostly Cloudy BKN120 55.4 50.5 84% 29.89 0.0
02 02:15 Calm 10.00 Partly Cloudy SCT120 55.6 50.5 83% 29.89 0.0
02 01:55 Calm 10.00 Partly Cloudy SCT120 55.6 50.5 61.9 55.6 83% 29.9 0.0
02 01:35 Calm 10.00 Fair CLR 56.3 50.5 81% 29.91 0.0
02 01:15 Calm 10.00 Fair CLR 55.8 50.9 84% 29.9 0.0
02 00:55 SE 3 10.00 Fair CLR 55.9 50.4 82% 29.91 0.0
02 00:35 Calm 10.00 Fair CLR 56.5 50.4 80% 29.91 0.0
02 00:15 Calm 10.00 Fair CLR 56.8 50 78% 29.92 0.0
01 23:55 Calm 10.00 Fair CLR 56.3 50 80% 29.91 0.0
01 23:35 Calm 10.00 Fair CLR 55.9 50 81% 29.92 0.0
01 23:15 S 3 10.00 Fair CLR 58.3 49.6 73% 29.92 0.0
01 22:55 Calm 10.00 Fair CLR 58.3 49.8 74% 29.93 0.0
01 22:35 Calm 10.00 Fair CLR 58.8 49.6 72% 29.93 0.0
01 22:15 S 3 10.00 Fair CLR 58.8 49.5 71% 29.92 0.0
01 21:55 Calm 10.00 Fair CLR 59 49.3 70% 29.92 0.0
01 21:35 Calm 10.00 Fair CLR 59.2 49.1 69% 29.92 0.0
01 21:15 Calm 10.00 Fair CLR 59.9 49.1 68% 29.92 0.0
01 20:55 Calm 10.00 Fair CLR 60.1 48.7 66% 29.91 0.0
01 20:35 S 3 10.00 Fair CLR 60.3 49.1 67% 29.9 0.0
01 20:15 SE 3 10.00 Fair CLR 61.3 48.7 63% 29.9 0.0
01 19:55 Calm 10.00 Fair CLR 61.9 48.4 66 61.9 61% 29.88 0.0
01 19:35 SE 3 10.00 Fair CLR 62.2 47.7 59% 29.88 0.0
01 19:15 S 5 10.00 Fair CLR 62.8 47.1 57% 29.87 0.0
01 18:55 S 5 10.00 Fair CLR 63 46.6 55% 29.88 0.0
01 18:35 S 5 10.00 Fair CLR 63.5 46.2 54% 29.89 0.0
01 18:15 S 5 10.00 Fair CLR 63.9 45.5 51% 29.89 0.0
01 17:55 S 5 10.00 Fair CLR 64.4 45.5 50% 29.89 0.0
01 17:35 S 5 10.00 Fair CLR 64.8 45 49% 29.89 0.0
01 17:15 S 6 10.00 Fair CLR 65.5 45.3 48% 29.9 0.0
01 16:55 Calm 10.00 Fair CLR 65.5 44.6 47% 29.9 0.0
01 16:35 SW 3 10.00 Fair CLR 63.7 43.3 48% 29.91 0.0
01 16:15 Calm 10.00 Fair CLR 63.3 42.8 47% 29.91 0.0
01 15:55 SE 3 10.00 Fair CLR 64.4 42.1 44% 29.92 0.0
01 15:35 SE 5 10.00 Fair CLR 63.5 39.7 42% 29.93 0.0
01 15:15 S 7 10.00 Fair CLR 65.1 38.8 38% 29.94 0.0
01 14:55 SE 6 10.00 Fair CLR 64.2 38.5 39% 29.95 0.0
01 14:35 S 5 10.00 Fair CLR 62.6 37.6 40% 29.95 0.0
01 14:15 SE 5 10.00 Partly Cloudy SCT050 63.5 37.8 39% 29.96 0.0
01 13:55 E 5 5.00 Overcast with Haze SCT044 OVC050 62.8 38.1 63.5 51.6 40% 29.96 0.0
01 13:35 NE 3 10.00 Overcast OVC044 62.4 37.2 39% 29.97 0.0
01 13:15 SE 5 10.00 Overcast OVC046 62.1 37 40% 29.97 0.0
01 12:55 Calm 10.00 Overcast OVC048 62.4 36.9 39% 29.98 0.0
01 12:35 NW 5 10.00 Mostly Cloudy BKN050 61.9 36.5 39% 29.98 0.0
01 12:15 S 3 10.00 Partly Cloudy SCT050 SCT060 61.9 37 40% 29.99 0.0
01 11:55 Calm 10.00 Mostly Cloudy BKN060 61 36.9 41% 30.01 0.0
01 11:35 SE 5 10.00 Overcast OVC050 59.5 36.3 42% 30.01 0.0
01 11:15 NE 8 10.00 Overcast OVC050 60.1 35.4 40% 30.01 0.0
01 10:55 NE 6 10.00 Mostly Cloudy BKN050 BKN060 58.6 35.6 42% 30 0.0
01 10:35 E 10 10.00 Partly Cloudy SCT060 58.6 35.8 43% 30 0.0
01 09:55 E 8 10.00 Fair CLR 57.2 35.6 44% 30.01 0.0
01 09:35 NE 9 10.00 Fair CLR 56.8 36.3 46% 30.01 0.0
01 09:15 NE 10 10.00 Fair CLR 55.9 36.3 48% 30.01 0.0
01 08:55 E 8 10.00 Fair CLR 55.2 36.1 49% 30 0.0
01 08:35 NE 5 10.00 Fair CLR 54.3 37 52% 30 0.0
01 08:15 NE 6 10.00 Fair CLR 53.4 37.2 54% 30 0.0
01 07:55 NE 5 10.00 Fair CLR 51.3 36.7 56.5 51.3 58% 30 0.0
01 07:35 NE 5 10.00 Fair CLR 52 35.8 54% 29.99 0.0
01 07:15 NE 6 10.00 Fair CLR 52.2 35.2 53% 29.98 0.0
01 06:55 NE 7 10.00 Mostly Cloudy BKN070 52.7 35.8 53% 29.99 0.0
01 06:35 NE 6 10.00 Overcast BKN065 OVC080 53.2 35.2 51% 29.99 0.0
01 06:15 NE 7 10.00 Overcast BKN065 OVC080 53.6 36.5 53% 29.97 0.0
01 05:55 NE 7 10.00 Overcast OVC065 54 36.3 51% 29.96 0.0
01 05:35 E 10 10.00 Overcast OVC065 54.5 35.8 49% 29.95 0.0
01 05:15 NE 7 10.00 Overcast OVC065 54.7 35.8 49% 29.96 0.0
01 04:55 NE 7 10.00 Overcast OVC065 54.9 35.6 48% 29.96 0.0
01 04:35 NE 10 10.00 Overcast OVC065 55.4 35.4 47% 29.94 0.0
01 04:15 NE 9 10.00 Overcast OVC065 55.4 35.2 47% 29.94 0.0
01 03:55 NE 7 10.00 Mostly Cloudy BKN065 BKN075 55.4 35.4 47% 29.93 0.0
01 03:35 NE 7 10.00 Mostly Cloudy SCT065 BKN075 56.1 35.4 46% 29.93 0.0
01 03:15 NE 7 10.00 Mostly Cloudy BKN065 BKN075 BKN085 56.3 35.8 46% 29.94 0.0
01 02:55 NE 8 10.00 Mostly Cloudy BKN065 BKN085 56.5 36.5 47% 29.94 0.0
01 02:35 Calm 10.00 Overcast OVC065 55.6 39.2 54% 29.94 0.0
01 02:15 NE 5 10.00 Overcast BKN070 OVC080 55.6 39 54% 29.94 0.0
01 01:55 NE 5 10.00 Overcast BKN070 OVC090 55.4 40.1 67.1 55.4 57% 29.94 0.0
01 01:35 NE 5 10.00 Overcast OVC070 56.7 39.2 52% 29.94 0.0
01 01:15 NE 5 10.00 Overcast OVC070 57.2 38.5 50% 29.94 0.0
01 00:55 Calm 10.00 Overcast OVC070 57.2 38.5 50% 29.94 0.0
01 00:35 NE 3 10.00 Overcast OVC080 56.3 40.8 56% 29.93 0.0
01 00:15 E 5 10.00 Overcast OVC080 57 39.4 52% 29.94 0.0
30 23:55 NE 3 10.00 Mostly Cloudy BKN080 58.1 38.7 49% 29.93 0.0
30 23:35 NE 3 10.00 Mostly Cloudy BKN080 57.2 39.6 52% 29.92 0.0
30 23:15 N 3 10.00 Overcast OVC080 58.3 39 49% 29.92 0.0
30 22:55 NW 5 10.00 Mostly Cloudy BKN080 58.5 39.4 49% 29.92 0.0
30 22:35 N 3 10.00 Mostly Cloudy BKN080 60.8 37.4 42% 29.92 0.0
30 22:15 N 5 10.00 Partly Cloudy SCT080 61.2 37.6 42% 29.91 0.0
30 21:55 N 3 10.00 Overcast OVC080 61.9 37 40% 29.91 0.0
30 21:35 Calm 10.00 Mostly Cloudy BKN080 62.2 37.2 40% 29.9 0.0
30 21:15 N 5 10.00 Partly Cloudy SCT080 62.6 36.5 38% 29.89 0.0
30 20:55 N 6 10.00 Partly Cloudy SCT080 63 35.8 36% 29.88 0.0
30 20:35 N 6 10.00 Partly Cloudy SCT080 64.6 34.3 33% 29.87 0.0
30 20:15 NW 8 10.00 Fair CLR 65.5 32.5 29% 29.86 0.0
30 19:55 N 8 10.00 Fair CLR 67.1 32 75.2 67.1 27% 29.85 0.0
30 19:35 N 9 10.00 Partly Cloudy SCT085 68.7 35.6 30% 29.84 0.0
30 19:15 N 7 10.00 Partly Cloudy SCT085 69.6 36.1 29% 29.84 0.0
30 18:55 N 10 10.00 Partly Cloudy SCT085 71.1 37.4 29% 29.84 0.0
30 18:35 N 9 10.00 Partly Cloudy SCT070 SCT085 72.5 41.4 33% 29.83 0.0
30 18:15 N 7 10.00 Mostly Cloudy SCT060 SCT080 BKN085 72.7 45 37% 29.82 0.0
30 17:55 NE 3 10.00 Mostly Cloudy SCT060 BKN070 BKN080 73.6 47.7 40% 29.8 0.0
30 17:35 N 6 10.00 Mostly Cloudy SCT060 SCT080 BKN090 74.3 48.6 40% 29.8 0.0
Date Time (edt) Wind (mph) Vis. (mi.) Weather Sky Cond. Air Dwpt Max. Min. Relative Humidity Wind Chill (°F) Heat Index (°F) altimeter (in) sea level (mb) 1 hr 3 hr 6 hr
6 hour
Temperature (ºF) Pressure Precipitation (in)